Time;durP1;ratioP1;P1;durP2;ratioP2;P2;SDS_P1;SDS_P2;PMS_P1;PMS_P2;Temp;Humidity;BMP_temperature;BMP_pressure;BME280_temperature;BME280_humidity;BME280_pressure;Samples;Min_cycle;Max_cycle;Signal;HPM_P1;HPM_P2
2022/04/07 00:02:40;;;;;;;3.80;1.00;;;10.60;99.90;;;;;;10283246;28;20043;-61
2022/04/07 00:07:41;;;;;;;2.85;0.75;;;10.50;99.90;;;;;;10298342;28;20066;-61
2022/04/07 00:12:43;;;;;;;4.20;0.88;;;10.50;99.90;;;;;;10301479;28;20089;-60
2022/04/07 00:17:45;;;;;;;1.95;0.73;;;10.40;99.90;;;;;;10300576;28;20065;-61
2022/04/07 00:22:47;;;;;;;1.52;0.80;;;10.30;99.90;;;;;;10292070;28;20045;-61
2022/04/07 00:27:49;;;;;;;2.33;1.00;;;10.30;99.90;;;;;;10295781;28;20043;-62
2022/04/07 00:32:51;;;;;;;1.20;0.70;;;10.30;99.90;;;;;;10299194;28;20046;-61
2022/04/07 00:37:52;;;;;;;3.50;0.90;;;10.30;99.90;;;;;;10291139;28;20097;-61
2022/04/07 00:42:54;;;;;;;3.13;0.82;;;10.30;99.90;;;;;;10303556;28;20089;-61
2022/04/07 00:47:58;;;;;;;3.22;0.90;;;10.30;99.90;;;;;;10301583;28;20050;-61
2022/04/07 00:53:02;;;;;;;1.25;0.80;;;10.20;99.90;;;;;;10300353;28;20576;-60
2022/04/07 00:58:04;;;;;;;2.40;0.70;;;10.20;99.90;;;;;;10291611;28;20054;-60
2022/04/07 01:03:07;;;;;;;2.55;1.30;;;10.10;99.90;;;;;;10294550;28;20050;-61
2022/04/07 01:08:09;;;;;;;3.05;1.08;;;10.10;99.90;;;;;;10293357;28;20062;-61
2022/04/07 01:13:11;;;;;;;2.47;0.82;;;10.00;99.90;;;;;;10291786;28;20046;-61
2022/04/07 01:18:14;;;;;;;4.68;1.40;;;10.00;99.90;;;;;;10292400;28;20058;-60
2022/04/07 01:23:15;;;;;;;6.90;1.75;;;10.00;99.90;;;;;;10294151;28;20053;-60
2022/04/07 01:28:17;;;;;;;2.55;1.17;;;10.00;99.90;;;;;;10295611;28;20104;-60
2022/04/07 01:33:19;;;;;;;2.90;1.00;;;10.10;99.90;;;;;;10292447;28;20054;-60
2022/04/07 01:38:21;;;;;;;3.75;1.10;;;10.10;99.90;;;;;;10292667;28;20054;-60
2022/04/07 01:43:22;;;;;;;4.07;1.17;;;10.20;99.90;;;;;;10293266;28;20066;-61
2022/04/07 01:48:25;;;;;;;3.67;1.02;;;10.20;99.90;;;;;;10294825;28;20085;-60
2022/04/07 01:53:28;;;;;;;4.53;1.27;;;10.20;99.90;;;;;;10297494;28;20046;-61
2022/04/07 01:58:31;;;;;;;1.30;0.88;;;10.30;99.90;;;;;;10293935;28;20054;-61
2022/04/07 02:03:33;;;;;;;1.80;0.65;;;10.30;99.90;;;;;;10299125;28;20047;-61
2022/04/07 02:08:35;;;;;;;2.47;0.70;;;10.30;99.90;;;;;;10293943;28;20065;-61
2022/04/07 02:13:38;;;;;;;2.88;0.70;;;10.20;99.90;;;;;;10286654;28;20112;-63
2022/04/07 02:18:40;;;;;;;3.85;0.70;;;10.10;99.90;;;;;;10292887;28;20497;-63
2022/04/07 02:23:42;;;;;;;1.42;0.60;;;9.90;99.90;;;;;;10290058;28;20045;-62
2022/04/07 02:28:45;;;;;;;1.75;0.60;;;9.70;99.90;;;;;;10299493;28;20054;-63
2022/04/07 02:33:47;;;;;;;2.10;0.95;;;9.60;99.90;;;;;;10294546;28;20054;-62
2022/04/07 02:38:48;;;;;;;2.58;0.73;;;9.40;99.90;;;;;;10293308;28;20041;-62
2022/04/07 02:43:50;;;;;;;4.35;0.85;;;9.40;99.90;;;;;;10294243;28;20082;-62
2022/04/07 02:48:52;;;;;;;2.88;0.63;;;9.40;99.90;;;;;;10292671;28;20050;-62
2022/04/07 02:53:57;;;;;;;1.73;0.68;;;9.40;99.90;;;;;;10300101;28;20113;-62
2022/04/07 02:58:59;;;;;;;2.97;0.95;;;9.40;99.90;;;;;;10290883;28;21659;-62
2022/04/07 03:04:03;;;;;;;2.70;0.85;;;9.30;99.90;;;;;;10291416;28;20050;-62
2022/04/07 03:09:05;;;;;;;3.00;0.85;;;9.30;99.90;;;;;;10291393;28;20504;-62
2022/04/07 03:14:07;;;;;;;1.92;0.90;;;9.30;99.90;;;;;;10294016;28;20061;-61
2022/04/07 03:19:09;;;;;;;2.38;0.82;;;9.30;99.90;;;;;;10292762;28;20105;-61
2022/04/07 03:24:11;;;;;;;2.13;0.70;;;9.30;99.90;;;;;;10292916;28;20046;-61
2022/04/07 03:29:34;;;;;;;4.10;0.63;;;9.40;99.90;;;;;;10292532;28;20626;-62
2022/04/07 03:34:36;;;;;;;5.15;0.70;;;9.30;99.90;;;;;;10291341;28;20054;-62
2022/04/07 03:39:38;;;;;;;4.20;0.80;;;9.40;99.90;;;;;;10293094;28;20077;-59
2022/04/07 03:44:40;;;;;;;2.05;0.70;;;9.40;99.90;;;;;;10293447;28;20054;-60
2022/04/07 03:49:41;;;;;;;1.90;0.80;;;9.40;99.90;;;;;;10293674;28;20050;-60
2022/04/07 03:54:43;;;;;;;1.73;0.93;;;9.50;99.90;;;;;;10286754;28;20105;-61
2022/04/07 03:59:45;;;;;;;1.45;0.63;;;9.50;99.90;;;;;;10295417;28;20069;-60
2022/04/07 04:04:46;;;;;;;1.92;0.60;;;9.50;99.90;;;;;;10296859;28;20109;-61
2022/04/07 04:09:48;;;;;;;1.17;0.50;;;9.50;99.90;;;;;;10300059;28;20050;-60
2022/04/07 04:14:50;;;;;;;2.88;0.52;;;9.60;99.90;;;;;;10303705;28;20058;-61
2022/04/07 04:19:51;;;;;;;1.25;0.60;;;9.60;99.90;;;;;;10300645;28;20050;-60
2022/04/07 04:24:53;;;;;;;1.10;0.50;;;9.60;99.90;;;;;;10296704;28;20058;-61
2022/04/07 04:29:55;;;;;;;2.72;0.82;;;9.60;99.90;;;;;;10296633;28;20077;-62
2022/04/07 04:34:57;;;;;;;1.65;0.68;;;9.60;99.90;;;;;;10299885;28;20445;-62
2022/04/07 04:39:58;;;;;;;1.25;0.30;;;9.70;99.90;;;;;;10302717;28;20047;-62
2022/04/07 04:45:00;;;;;;;1.05;0.32;;;9.70;99.90;;;;;;10300526;28;20081;-62
2022/04/07 04:50:06;;;;;;;0.85;0.50;;;9.80;99.90;;;;;;10291495;28;20042;-62
2022/04/07 04:55:08;;;;;;;3.40;0.40;;;9.80;99.90;;;;;;10299510;28;20054;-62
2022/04/07 05:00:11;;;;;;;1.38;0.50;;;9.90;99.90;;;;;;10279170;28;20095;-62
2022/04/07 05:05:13;;;;;;;1.27;0.40;;;9.90;99.90;;;;;;10294577;28;20053;-62
2022/04/07 05:10:15;;;;;;;2.65;0.30;;;10.00;99.90;;;;;;10298356;28;20124;-62
2022/04/07 05:15:17;;;;;;;0.98;0.30;;;10.00;99.90;;;;;;10292016;28;20104;-63
2022/04/07 05:20:19;;;;;;;0.73;0.32;;;10.00;99.90;;;;;;10299761;28;20563;-64
2022/04/07 05:25:21;;;;;;;0.60;0.40;;;10.00;99.90;;;;;;10295173;28;20045;-64
2022/04/07 05:30:23;;;;;;;0.70;0.30;;;10.00;99.90;;;;;;10292268;28;20046;-64
2022/04/07 05:35:28;;;;;;;2.60;0.50;;;10.00;99.90;;;;;;10295587;28;20054;-64
2022/04/07 05:40:30;;;;;;;0.75;0.47;;;10.00;99.90;;;;;;10292548;28;20043;-64
2022/04/07 05:45:33;;;;;;;3.40;0.40;;;9.90;99.90;;;;;;10295509;28;20621;-65
2022/04/07 05:50:35;;;;;;;0.50;0.30;;;10.00;99.90;;;;;;10289834;28;20904;-65
2022/04/07 05:55:37;;;;;;;1.52;0.40;;;10.00;99.90;;;;;;10297165;28;20042;-60
2022/04/07 06:00:39;;;;;;;1.08;0.30;;;10.00;99.90;;;;;;10296946;28;20043;-60
2022/04/07 06:05:41;;;;;;;0.70;0.30;;;10.00;99.90;;;;;;10289008;28;20054;-60
2022/04/07 06:10:43;;;;;;;0.45;0.20;;;10.00;99.90;;;;;;10298053;28;20109;-62
2022/04/07 06:15:45;;;;;;;0.55;0.30;;;10.00;99.90;;;;;;10293473;28;20054;-62
2022/04/07 06:20:47;;;;;;;1.08;0.20;;;10.10;99.90;;;;;;10294107;28;20054;-61
2022/04/07 06:25:48;;;;;;;0.13;0.10;;;10.10;99.90;;;;;;10289434;28;20409;-60
2022/04/07 06:30:51;;;;;;;1.38;0.20;;;10.10;99.90;;;;;;10289151;28;20046;-61
2022/04/07 06:35:53;;;;;;;0.17;0.10;;;10.10;99.90;;;;;;10298792;28;20500;-61
2022/04/07 06:40:55;;;;;;;0.20;0.10;;;10.10;99.90;;;;;;10291475;28;22363;-61
2022/04/07 06:45:57;;;;;;;1.10;0.20;;;10.00;99.90;;;;;;10286667;28;20058;-61
2022/04/07 06:50:58;;;;;;;0.45;0.20;;;10.10;99.90;;;;;;10295826;28;20497;-61
2022/04/07 06:56:00;;;;;;;0.60;0.20;;;10.10;99.90;;;;;;10291307;28;20047;-61
2022/04/07 07:01:02;;;;;;;0.20;0.10;;;10.10;99.90;;;;;;10291405;28;20043;-60
2022/04/07 07:06:04;;;;;;;0.50;0.22;;;9.90;99.90;;;;;;10287066;28;20084;-60
2022/04/07 07:11:06;;;;;;;0.65;0.28;;;9.50;99.90;;;;;;10299702;28;20469;-61
2022/04/07 07:16:08;;;;;;;0.73;0.20;;;9.40;99.90;;;;;;10292711;28;20058;-62
2022/04/07 07:21:10;;;;;;;0.73;0.20;;;9.40;99.90;;;;;;10293491;28;20408;-63
2022/04/07 07:26:13;;;;;;;4.25;0.75;;;9.50;99.90;;;;;;10292443;28;20485;-64
2022/04/07 07:31:14;;;;;;;0.22;0.20;;;9.50;99.90;;;;;;10294270;28;20061;-63
2022/04/07 07:36:16;;;;;;;0.50;0.20;;;9.50;99.90;;;;;;10290972;28;20051;-64
2022/04/07 07:41:18;;;;;;;0.20;0.10;;;9.60;99.90;;;;;;10297212;28;20110;-64
2022/04/07 07:46:20;;;;;;;0.70;0.10;;;9.70;99.90;;;;;;10299237;28;20113;-64
2022/04/07 07:51:22;;;;;;;0.20;0.10;;;9.70;99.90;;;;;;10293263;28;20050;-66
2022/04/07 07:56:23;;;;;;;1.73;0.10;;;9.70;99.90;;;;;;10297195;28;20121;-69
2022/04/07 08:01:26;;;;;;;0.63;0.10;;;9.70;99.90;;;;;;10298960;28;20065;-70
2022/04/07 08:06:29;;;;;;;0.30;0.10;;;9.70;99.90;;;;;;10292280;28;20046;-68
2022/04/07 08:11:31;;;;;;;1.55;0.10;;;9.60;99.90;;;;;;10292834;28;20050;-68
2022/04/07 08:16:32;;;;;;;1.00;0.10;;;9.60;99.90;;;;;;10295060;28;20055;-68
2022/04/07 08:21:34;;;;;;;1.42;0.13;;;9.50;99.90;;;;;;10293820;28;20046;-68
2022/04/07 08:26:36;;;;;;;1.88;0.20;;;9.50;99.90;;;;;;10296814;28;20097;-68
2022/04/07 08:31:38;;;;;;;2.47;0.10;;;9.50;99.90;;;;;;10289844;28;20057;-67
2022/04/07 08:36:42;;;;;;;2.28;0.10;;;9.60;99.90;;;;;;10302764;28;20069;-67
2022/04/07 08:41:47;;;;;;;0.20;0.10;;;9.70;99.90;;;;;;10297981;28;20113;-66
2022/04/07 08:46:56;;;;;;;0.90;0.10;;;9.70;99.90;;;;;;10291105;28;20050;-66
2022/04/07 08:51:58;;;;;;;0.30;0.10;;;9.80;99.90;;;;;;10293905;28;20052;-67
2022/04/07 08:57:00;;;;;;;0.40;0.10;;;9.80;99.90;;;;;;10292130;28;20100;-68
2022/04/07 09:02:09;;;;;;;1.02;0.10;;;9.70;99.90;;;;;;10293303;28;20116;-67
2022/04/07 09:07:14;;;;;;;0.30;0.10;;;9.70;99.90;;;;;;10291349;28;20051;-68
2022/04/07 09:12:23;;;;;;;0.03;0.00;;;9.80;99.90;;;;;;10290640;28;20469;-68
2022/04/07 09:17:26;;;;;;;0.43;0.10;;;9.70;99.90;;;;;;10294694;28;20077;-67
2022/04/07 09:22:30;;;;;;;0.17;0.10;;;9.80;99.90;;;;;;10291922;28;20374;-65
2022/04/07 09:27:32;;;;;;;1.88;0.00;;;9.80;99.90;;;;;;10293777;28;20541;-66
2022/04/07 09:32:44;;;;;;;1.65;0.10;;;9.80;99.90;;;;;;10290402;28;20066;-65
2022/04/07 09:37:45;;;;;;;1.83;0.10;;;9.90;99.90;;;;;;10295530;28;20054;-65
2022/04/07 09:42:58;;;;;;;1.65;0.10;;;9.90;99.90;;;;;;10299591;28;20058;-66
2022/04/07 09:47:59;;;;;;;0.85;0.20;;;10.00;99.90;;;;;;10296662;28;20078;-66
2022/04/07 09:53:03;;;;;;;0.55;0.00;;;10.00;99.90;;;;;;10295788;28;20101;-66
2022/04/07 09:58:07;;;;;;;0.15;0.03;;;10.10;99.90;;;;;;10292767;28;20125;-66
2022/04/07 10:03:10;;;;;;;0.22;0.10;;;10.00;99.90;;;;;;10286993;28;20043;-66
2022/04/07 10:08:15;;;;;;;2.00;0.10;;;10.10;99.90;;;;;;10286308;28;20060;-66
2022/04/07 10:13:17;;;;;;;1.55;0.08;;;10.10;99.90;;;;;;10291554;28;20050;-66
2022/04/07 10:18:35;;;;;;;0.20;0.10;;;10.10;99.90;;;;;;10291114;28;20049;-66
2022/04/07 10:24:09;;;;;;;0.65;0.10;;;10.10;99.90;;;;;;10290771;28;20042;-66
2022/04/07 10:29:24;;;;;;;1.55;0.10;;;10.20;99.90;;;;;;10288179;28;20046;-68
2022/04/07 10:34:32;;;;;;;0.40;0.10;;;10.30;99.90;;;;;;10288734;28;20058;-68
2022/04/07 10:39:34;;;;;;;0.10;0.10;;;10.60;99.90;;;;;;10292803;28;20046;-69
2022/04/07 10:44:38;;;;;;;0.00;0.00;;;10.70;99.90;;;;;;10292470;28;20105;-70
2022/04/07 10:49:46;;;;;;;0.85;0.00;;;10.90;99.90;;;;;;10285282;28;20104;-70
2022/04/07 10:55:09;;;;;;;0.10;0.00;;;10.80;99.90;;;;;;10292353;28;20039;-69
2022/04/07 11:00:11;;;;;;;0.80;0.00;;;11.00;99.90;;;;;;10291560;28;20116;-68
2022/04/07 11:05:24;;;;;;;0.45;0.45;;;11.10;99.90;;;;;;10296400;28;20053;-67
2022/04/07 11:10:46;;;;;;;0.68;0.00;;;11.10;99.90;;;;;;10291357;28;20062;-65
2022/04/07 11:15:57;;;;;;;0.00;0.00;;;11.40;99.90;;;;;;10299097;28;20070;-65
2022/04/07 11:21:06;;;;;;;0.00;0.00;;;11.50;99.90;;;;;;10297185;28;20097;-64
2022/04/07 11:26:17;;;;;;;0.10;0.00;;;11.70;99.90;;;;;;10296318;28;20058;-64
2022/04/07 11:31:46;;;;;;;1.42;0.05;;;11.80;99.90;;;;;;10302182;28;20066;-64
2022/04/07 11:36:48;;;;;;;0.45;0.45;;;12.10;99.90;;;;;;10292081;28;20093;-62
2022/04/07 11:41:50;;;;;;;0.25;0.00;;;12.30;99.90;;;;;;10290530;28;20479;-61
2022/04/07 11:46:52;;;;;;;0.13;0.00;;;12.40;99.90;;;;;;10293453;28;20563;-63
2022/04/07 11:51:55;;;;;;;0.20;0.03;;;12.30;99.90;;;;;;10292421;28;20046;-63
2022/04/07 11:56:58;;;;;;;0.00;0.00;;;12.20;99.90;;;;;;10292498;28;20433;-62
2022/04/07 12:02:00;;;;;;;0.00;0.00;;;12.20;99.90;;;;;;10298404;28;20081;-62
2022/04/07 12:07:04;;;;;;;0.10;0.03;;;12.50;99.90;;;;;;10298324;28;20057;-62
2022/04/07 12:12:07;;;;;;;0.30;0.00;;;12.60;99.90;;;;;;10295710;28;20062;-63
2022/04/07 12:17:09;;;;;;;0.10;0.00;;;12.70;99.90;;;;;;10298229;28;20058;-63
2022/04/07 12:22:13;;;;;;;0.00;0.00;;;12.80;99.90;;;;;;10295580;28;20130;-65
2022/04/07 12:27:32;;;;;;;5.40;0.00;;;12.90;99.90;;;;;;10295978;28;20356;-63
2022/04/07 12:32:44;;;;;;;0.00;0.00;;;13.00;99.90;;;;;;10300807;28;20054;-64
2022/04/07 12:37:45;;;;;;;1.38;0.00;;;13.20;99.90;;;;;;10298079;28;20051;-64
2022/04/07 12:42:52;;;;;;;1.60;0.00;;;13.30;99.90;;;;;;10297046;28;20082;-64
2022/04/07 12:48:23;;;;;;;1.35;0.08;;;13.30;99.90;;;;;;10291853;28;20043;-64
2022/04/07 12:53:33;;;;;;;0.10;0.00;;;13.40;99.90;;;;;;10291772;28;20058;-64
2022/04/07 12:58:34;;;;;;;3.13;0.10;;;13.30;99.90;;;;;;10299528;28;20050;-68
2022/04/07 13:03:54;;;;;;;0.00;0.00;;;10.10;99.90;;;;;;10300044;28;20500;-69
2022/04/07 13:08:56;;;;;;;0.00;0.00;;;8.80;99.90;;;;;;10296453;28;20087;-70
2022/04/07 13:13:59;;;;;;;0.00;0.00;;;8.70;99.90;;;;;;10303244;28;20054;-73
2022/04/07 13:19:02;;;;;;;0.00;0.00;;;8.80;99.90;;;;;;10307907;28;20042;-73
2022/04/07 13:24:04;;;;;;;0.00;0.00;;;9.20;99.90;;;;;;10299034;28;20494;-72
2022/04/07 13:29:07;;;;;;;0.00;0.00;;;9.60;99.90;;;;;;10295550;28;20046;-71
2022/04/07 13:34:09;;;;;;;0.00;0.00;;;9.70;99.90;;;;;;10255508;28;20054;-70
2022/04/07 13:39:11;;;;;;;0.00;0.00;;;9.80;99.90;;;;;;10256359;28;20057;-71
2022/04/07 13:44:13;;;;;;;0.00;0.00;;;9.90;99.90;;;;;;10251197;28;20051;-72
2022/04/07 13:49:16;;;;;;;0.00;0.00;;;10.10;99.90;;;;;;10260317;28;20055;-72
2022/04/07 13:54:18;;;;;;;0.00;0.00;;;10.30;99.90;;;;;;10254560;28;20203;-72
2022/04/07 13:59:20;;;;;;;0.00;0.00;;;10.40;99.90;;;;;;10263053;28;20051;-71
2022/04/07 14:04:22;;;;;;;0.00;0.00;;;10.50;99.90;;;;;;10255313;28;20051;-71
2022/04/07 14:09:23;;;;;;;0.43;0.43;;;10.70;99.90;;;;;;10255442;28;20055;-71
2022/04/07 14:14:26;;;;;;;0.00;0.00;;;11.20;99.90;;;;;;10252866;28;20051;-73
2022/04/07 14:19:27;;;;;;;0.00;0.00;;;11.40;99.90;;;;;;10250846;28;20046;-71
2022/04/07 14:24:29;;;;;;;0.00;0.00;;;11.60;99.90;;;;;;10257200;28;20137;-71
2022/04/07 14:29:31;;;;;;;0.00;0.00;;;12.00;99.90;;;;;;10251276;28;20054;-70
2022/04/07 14:34:33;;;;;;;0.00;0.00;;;12.20;99.90;;;;;;10251286;28;20744;-69
2022/04/07 14:39:34;;;;;;;0.00;0.00;;;12.30;79.80;;;;;;10258534;28;20065;-72
2022/04/07 14:44:36;;;;;;;0.00;0.00;;;12.80;58.70;;;;;;10251022;28;20503;-62
2022/04/07 14:49:38;;;;;;;0.00;0.00;;;12.70;57.00;;;;;;10251359;28;20081;-62
2022/04/07 14:54:46;;;;;;;0.00;0.00;;;12.90;53.10;;;;;;10250335;28;20149;-63
2022/04/07 14:59:48;;;;;;;0.10;0.00;;;12.90;52.20;;;;;;10256469;28;20047;-63
2022/04/07 15:04:50;;;;;;;0.63;0.10;;;13.10;54.40;;;;;;10256943;28;20458;-62
2022/04/07 15:09:51;;;;;;;0.00;0.00;;;13.20;53.10;;;;;;10260285;28;20039;-62
2022/04/07 15:14:53;;;;;;;0.30;0.00;;;13.40;54.10;;;;;;10250121;28;20067;-62
2022/04/07 15:19:55;;;;;;;0.00;0.00;;;13.30;54.30;;;;;;10249772;28;20114;-61
2022/04/07 15:24:57;;;;;;;0.10;0.00;;;13.30;51.90;;;;;;10259053;28;20042;-62
2022/04/07 15:30:03;;;;;;;0.05;0.00;;;13.50;54.80;;;;;;10256989;28;20054;-62
2022/04/07 15:35:05;;;;;;;0.28;0.00;;;13.70;52.70;;;;;;10251909;28;20109;-63
2022/04/07 15:40:08;;;;;;;0.60;0.00;;;13.80;52.60;;;;;;10257828;28;20047;-62
2022/04/07 15:45:11;;;;;;;0.52;0.05;;;13.80;52.30;;;;;;10255414;28;20059;-62
2022/04/07 15:50:13;;;;;;;0.95;0.00;;;13.80;53.90;;;;;;10247659;28;20055;-62
2022/04/07 15:55:15;;;;;;;0.50;0.08;;;13.90;51.90;;;;;;10252789;28;20059;-63
2022/04/07 16:00:17;;;;;;;0.00;0.00;;;14.10;52.50;;;;;;10252191;28;20055;-62
2022/04/07 16:05:19;;;;;;;0.10;0.00;;;14.10;50.30;;;;;;10259504;28;20062;-62
2022/04/07 16:10:21;;;;;;;0.63;0.08;;;14.10;48.70;;;;;;10255476;28;20106;-62
2022/04/07 16:15:22;;;;;;;0.85;0.00;;;13.90;49.40;;;;;;10254951;28;20098;-62
2022/04/07 16:20:24;;;;;;;0.38;0.08;;;13.70;47.30;;;;;;10264217;28;20052;-62
2022/04/07 16:25:26;;;;;;;0.10;0.00;;;13.40;48.70;;;;;;10256208;28;20060;-63
2022/04/07 16:30:27;;;;;;;1.75;0.10;;;13.20;50.80;;;;;;10255421;28;20051;-62
2022/04/07 16:35:29;;;;;;;0.63;0.30;;;13.10;51.30;;;;;;10258734;28;20073;-62
2022/04/07 16:40:31;;;;;;;2.35;0.10;;;13.00;52.70;;;;;;10252686;28;20047;-63
2022/04/07 16:45:33;;;;;;;0.47;0.10;;;13.10;50.40;;;;;;10255602;28;20132;-62
2022/04/07 16:50:35;;;;;;;0.00;0.00;;;13.20;49.10;;;;;;10258184;28;20057;-62
2022/04/07 16:55:38;;;;;;;0.15;0.00;;;13.10;48.80;;;;;;10274569;28;20055;-62
2022/04/07 17:00:40;;;;;;;1.95;0.10;;;12.90;48.10;;;;;;10248346;28;20053;-62
2022/04/07 17:05:42;;;;;;;0.15;0.00;;;12.80;48.90;;;;;;10256819;28;20114;-63
2022/04/07 17:10:44;;;;;;;0.10;0.00;;;12.70;47.10;;;;;;10245461;28;20320;-62
2022/04/07 17:15:46;;;;;;;0.77;0.00;;;12.70;46.60;;;;;;10256180;28;20055;-62
2022/04/07 17:20:49;;;;;;;0.30;0.10;;;12.60;47.60;;;;;;10257555;28;20054;-61
2022/04/07 17:25:51;;;;;;;1.95;0.00;;;12.50;47.20;;;;;;10256105;28;20047;-61
2022/04/07 17:30:54;;;;;;;0.20;0.00;;;12.50;45.30;;;;;;10262330;28;20438;-61
2022/04/07 17:35:56;;;;;;;0.13;0.00;;;12.40;46.10;;;;;;10258685;28;20047;-61
2022/04/07 17:40:58;;;;;;;1.58;0.05;;;12.40;46.60;;;;;;10267174;28;20043;-62
2022/04/07 17:45:59;;;;;;;0.40;0.00;;;12.30;47.60;;;;;;10260085;28;20097;-60
2022/04/07 17:51:01;;;;;;;0.40;0.00;;;12.20;46.70;;;;;;10268214;28;20046;-60
2022/04/07 17:56:07;;;;;;;0.77;0.10;;;12.20;45.40;;;;;;10269968;28;20047;-61
2022/04/07 18:01:10;;;;;;;1.33;0.20;;;12.10;45.50;;;;;;10256934;28;20051;-62
2022/04/07 18:06:12;;;;;;;0.75;0.10;;;12.10;45.40;;;;;;10261428;28;20421;-61
2022/04/07 18:11:14;;;;;;;2.72;1.17;;;12.00;46.20;;;;;;10255689;28;20449;-62
2022/04/07 18:16:16;;;;;;;0.25;0.03;;;11.90;45.40;;;;;;10261257;28;20190;-62
2022/04/07 18:21:19;;;;;;;1.35;0.10;;;;;;;;;;10253531;28;20462;-58
2022/04/07 18:26:20;;;;;;;1.67;0.10;;;11.80;45.20;;;;;;10249137;28;20516;-58
2022/04/07 18:31:22;;;;;;;1.38;0.03;;;11.70;45.10;;;;;;10253500;28;20061;-59
2022/04/07 18:36:24;;;;;;;0.35;0.00;;;11.60;44.80;;;;;;10248380;28;20075;-59
2022/04/07 18:41:26;;;;;;;10.35;0.20;;;11.50;45.50;;;;;;10248771;28;20047;-59
2022/04/07 18:46:27;;;;;;;0.52;0.10;;;11.50;45.00;;;;;;10249013;28;20054;-58
2022/04/07 18:51:29;;;;;;;1.92;0.10;;;11.40;45.80;;;;;;10251749;28;20113;-59
2022/04/07 18:56:31;;;;;;;2.88;0.10;;;11.40;45.20;;;;;;10247807;28;20498;-58
2022/04/07 19:01:33;;;;;;;1.08;0.03;;;11.20;46.10;;;;;;10244576;28;20034;-59
2022/04/07 19:06:35;;;;;;;0.85;0.10;;;11.10;46.50;;;;;;10250917;28;20684;-59
2022/04/07 19:11:36;;;;;;;0.17;0.00;;;11.10;45.90;;;;;;10253876;28;20110;-59
2022/04/07 19:16:38;;;;;;;0.63;0.43;;;11.10;45.70;;;;;;10255053;28;20047;-59
2022/04/07 19:21:40;;;;;;;1.08;0.00;;;11.10;45.30;;;;;;10255209;28;20043;-59
2022/04/07 19:26:42;;;;;;;0.20;0.10;;;11.10;44.90;;;;;;10252543;28;20039;-59
2022/04/07 19:31:46;;;;;;;1.00;0.00;;;11.10;44.60;;;;;;10248183;28;20126;-60
2022/04/07 19:36:49;;;;;;;0.00;0.00;;;11.00;45.00;;;;;;10261873;28;20047;-60
2022/04/07 19:41:51;;;;;;;0.10;0.00;;;11.00;44.90;;;;;;10256661;28;20059;-61
2022/04/07 19:46:53;;;;;;;0.45;0.10;;;10.90;45.10;;;;;;10253546;28;20090;-61
2022/04/07 19:51:55;;;;;;;0.17;0.00;;;10.90;45.60;;;;;;10257862;28;20047;-60
2022/04/07 19:56:56;;;;;;;0.75;0.03;;;10.80;46.40;;;;;;10254901;28;20492;-59
2022/04/07 20:01:59;;;;;;;2.88;0.20;;;10.70;47.40;;;;;;10253442;28;20094;-59
2022/04/07 20:07:00;;;;;;;5.00;0.20;;;10.60;48.40;;;;;;10256285;28;20464;-58
2022/04/07 20:12:03;;;;;;;1.10;0.03;;;10.60;48.20;;;;;;10258118;28;20064;-59
2022/04/07 20:17:05;;;;;;;0.32;0.10;;;10.60;47.60;;;;;;10364272;23;20105;-89
2022/04/07 20:22:07;;;;;;;1.67;0.15;;;10.50;47.70;;;;;;10318502;28;20054;-87
2022/04/07 20:27:14;;;;;;;4.07;0.20;;;10.50;47.60;;;;;;10338267;28;20051;-88
2022/04/07 20:32:16;;;;;;;0.85;0.20;;;10.50;47.20;;;;;;10333891;28;20354;-88
2022/04/07 20:37:18;;;;;;;2.15;0.10;;;10.40;48.50;;;;;;10343408;28;20039;-88
2022/04/07 20:42:20;;;;;;;0.35;0.00;;;10.40;48.50;;;;;;10338527;28;20082;-88
2022/04/07 20:47:21;;;;;;;1.65;0.08;;;10.30;48.70;;;;;;10329575;28;20438;-89
2022/04/07 20:52:24;;;;;;;0.70;0.20;;;10.20;49.10;;;;;;10354496;28;20089;-87
2022/04/07 20:57:26;;;;;;;0.57;0.20;;;10.10;49.40;;;;;;10333986;28;20569;-88
2022/04/07 21:02:28;;;;;;;1.27;0.10;;;10.10;49.40;;;;;;10334023;28;20046;-87
2022/04/07 21:07:30;;;;;;;0.30;0.10;;;10.00;50.80;;;;;;10323430;28;20457;-87
2022/04/07 21:12:34;;;;;;;0.60;0.10;;;10.00;50.20;;;;;;10305216;28;20129;-87
2022/04/07 21:17:39;;;;;;;4.65;0.50;;;9.90;51.30;;;;;;10329941;28;20448;-86
2022/04/07 21:22:40;;;;;;;1.85;0.30;;;9.90;51.20;;;;;;10340335;28;20061;-86
2022/04/07 21:27:42;;;;;;;1.95;0.10;;;9.90;51.60;;;;;;10322227;28;20068;-85
2022/04/07 21:32:44;;;;;;;0.88;0.10;;;9.80;52.30;;;;;;10343763;28;20056;-87
2022/04/07 21:37:47;;;;;;;0.30;0.10;;;9.80;52.40;;;;;;10344800;28;20566;-86
2022/04/07 21:42:49;;;;;;;3.88;0.10;;;9.80;53.00;;;;;;10323845;28;20100;-87
2022/04/07 21:47:51;;;;;;;1.88;0.10;;;9.90;52.90;;;;;;10335573;28;20049;-86
2022/04/07 21:52:52;;;;;;;3.83;0.30;;;9.80;53.10;;;;;;10325690;28;20042;-86
2022/04/07 21:57:54;;;;;;;2.17;0.22;;;9.80;53.70;;;;;;10322057;28;20050;-87
2022/04/07 22:02:56;;;;;;;2.17;0.20;;;9.80;54.00;;;;;;10340357;28;20054;-86
2022/04/07 22:07:58;;;;;;;1.40;0.03;;;9.70;54.80;;;;;;10315781;28;20053;-86
2022/04/07 22:13:05;;;;;;;1.63;0.10;;;9.70;54.80;;;;;;10332829;28;20113;-85
2022/04/07 22:18:07;;;;;;;6.25;0.20;;;9.60;55.40;;;;;;10320522;28;20059;-86
2022/04/07 22:23:09;;;;;;;1.40;0.10;;;9.60;56.10;;;;;;10348285;28;20058;-87
2022/04/07 22:28:11;;;;;;;3.75;0.50;;;9.50;56.30;;;;;;10319643;28;20068;-87
2022/04/07 22:33:13;;;;;;;1.20;0.10;;;9.50;56.80;;;;;;10320552;28;20050;-87
2022/04/07 22:38:15;;;;;;;2.22;0.20;;;9.50;57.20;;;;;;10333056;28;20050;-87
2022/04/07 22:43:17;;;;;;;3.22;0.17;;;9.40;58.30;;;;;;10343584;28;20468;-88
2022/04/07 22:48:18;;;;;;;1.90;0.10;;;9.40;58.60;;;;;;10344572;28;20057;-87
2022/04/07 22:53:20;;;;;;;3.30;0.10;;;9.40;58.90;;;;;;10329495;28;20038;-87
2022/04/07 22:58:23;;;;;;;3.67;1.02;;;9.40;59.10;;;;;;10344178;28;20051;-88
2022/04/07 23:03:25;;;;;;;0.75;0.10;;;9.30;59.40;;;;;;10362805;28;20146;-87
2022/04/07 23:08:27;;;;;;;3.13;0.20;;;9.30;59.90;;;;;;10326799;28;20400;-90
2022/04/07 23:13:28;;;;;;;4.28;0.10;;;9.30;60.60;;;;;;10323639;28;20116;-87
2022/04/07 23:18:30;;;;;;;0.55;0.15;;;9.20;60.90;;;;;;10339654;28;20059;-87
2022/04/07 23:23:32;;;;;;;2.85;0.20;;;9.20;61.10;;;;;;10335448;28;20050;-87
2022/04/07 23:28:34;;;;;;;1.15;0.20;;;9.20;62.50;;;;;;10329974;28;20057;-86
2022/04/07 23:33:36;;;;;;;3.70;0.30;;;9.10;62.70;;;;;;10320409;28;20089;-87
2022/04/07 23:38:38;;;;;;;5.57;0.20;;;9.10;62.60;;;;;;10338725;28;20508;-87
2022/04/07 23:43:40;;;;;;;4.65;0.77;;;9.00;63.60;;;;;;10342946;28;20061;-88
2022/04/07 23:48:43;;;;;;;3.53;0.30;;;8.90;64.00;;;;;;10336932;28;20050;-87
2022/04/07 23:53:45;;;;;;;1.00;0.28;;;8.90;64.60;;;;;;10333137;28;20080;-86
2022/04/07 23:58:47;;;;;;;1.98;0.10;;;8.90;64.00;;;;;;10327542;28;20061;-87
